Time;durP1;ratioP1;P1;durP2;ratioP2;P2;SDS_P1;SDS_P2;PMS_P1;PMS_P2;Temp;Humidity;BMP_temperature;BMP_pressure;BME280_temperature;BME280_humidity;BME280_pressure;Samples;Min_cycle;Max_cycle;Signal;HPM_P1;HPM_P2
2024/01/10 00:02:22;;;;;;;7.45;5.07;;;;;;;;;;10413139;28;20017;-74
2024/01/10 00:07:23;;;;;;;12.15;5.18;;;;;;;;;;10412884;28;20215;-74
2024/01/10 00:12:23;;;;;;;8.02;4.40;;;;;;;;;;10412984;28;20040;-74
2024/01/10 00:17:24;;;;;;;4.53;3.55;;;;;;;;;;10412845;28;20029;-74
2024/01/10 00:22:24;;;;;;;5.95;4.28;;;;;;;;;;10393814;28;20496;-74
2024/01/10 00:27:24;;;;;;;6.57;3.93;;;;;;;;;;10395374;28;20059;-74
2024/01/10 00:32:24;;;;;;;11.60;5.00;;;;;;;;;;10412707;28;20141;-73
2024/01/10 00:37:26;;;;;;;11.45;5.72;;;;;;;;;;10413073;28;20039;-75
2024/01/10 00:42:27;;;;;;;11.15;5.25;;;;;;;;;;10412130;28;20042;-74
2024/01/10 00:47:27;;;;;;;10.88;6.25;;;;;;;;;;10412205;28;20026;-73
2024/01/10 00:52:27;;;;;;;8.68;5.22;;;;;;;;;;10413067;28;20025;-74
2024/01/10 00:57:27;;;;;;;17.42;5.90;;;;;;;;;;10411850;28;20040;-74
2024/01/10 01:02:27;;;;;;;12.45;5.80;;;;;;;;;;10410765;28;20025;-74
2024/01/10 01:07:28;;;;;;;9.00;4.88;;;;;;;;;;10411872;28;20087;-73
2024/01/10 01:12:28;;;;;;;10.93;5.53;;;;;;;;;;10411970;28;20053;-74
2024/01/10 01:17:29;;;;;;;6.32;4.13;;;;;;;;;;10370814;28;20257;-74
2024/01/10 01:22:29;;;;;;;7.95;5.30;;;;;;;;;;10410843;28;20086;-74
2024/01/10 01:27:29;;;;;;;10.43;6.90;;;;;;;;;;10411933;28;20064;-74
2024/01/10 01:32:29;;;;;;;8.15;6.75;;;;;;;;;;10396401;28;20021;-74
2024/01/10 01:37:30;;;;;;;8.00;4.18;;;;;;;;;;10418645;28;20270;-74
2024/01/10 01:42:30;;;;;;;12.82;5.57;;;;;;;;;;10417892;28;20037;-74
2024/01/10 01:47:30;;;;;;;6.03;4.40;;;;;;;;;;10418205;28;20029;-73
2024/01/10 01:52:31;;;;;;;6.37;4.43;;;;;;;;;;10400297;28;20231;-73
2024/01/10 01:57:32;;;;;;;8.32;4.70;;;;;;;;;;10417608;28;20334;-74
2024/01/10 02:02:32;;;;;;;8.15;5.68;;;;;;;;;;10399873;28;20052;-74
2024/01/10 02:07:32;;;;;;;10.40;5.30;;;;;;;;;;10417481;28;20364;-72
2024/01/10 02:12:33;;;;;;;15.90;5.63;;;;;;;;;;10416927;28;20075;-74
2024/01/10 02:17:33;;;;;;;10.43;5.43;;;;;;;;;;10417318;28;20064;-74
2024/01/10 02:22:33;;;;;;;10.33;7.30;;;;;;;;;;10417143;28;20330;-74
2024/01/10 02:27:37;;;;;;;9.48;6.90;;;;;;;;;;10416894;28;20083;-73
2024/01/10 02:32:37;;;;;;;12.68;7.68;;;;;;;;;;10398488;28;20017;-73
2024/01/10 02:37:37;;;;;;;12.32;6.18;;;;;;;;;;10399333;28;20327;-74
2024/01/10 02:42:39;;;;;;;10.93;5.88;;;;;;;;;;10397456;28;20095;-73
2024/01/10 02:47:39;;;;;;;11.20;5.40;;;;;;;;;;10416349;28;20057;-74
2024/01/10 02:52:39;;;;;;;8.40;5.55;;;;;;;;;;10415859;28;20024;-73
2024/01/10 02:57:39;;;;;;;11.93;6.22;;;;;;;;;;10415792;28;20037;-74
2024/01/10 03:02:40;;;;;;;12.52;8.15;;;;;;;;;;10415374;28;20346;-73
2024/01/10 03:07:40;;;;;;;10.65;5.95;;;;;;;;;;10384369;28;20215;-74
2024/01/10 03:12:40;;;;;;;21.15;8.95;;;;;;;;;;10415070;28;20036;-74
2024/01/10 03:17:41;;;;;;;12.52;6.50;;;;;;;;;;10415108;28;20013;-74
2024/01/10 03:22:41;;;;;;;7.88;5.93;;;;;;;;;;10413637;28;20043;-74
2024/01/10 03:27:41;;;;;;;16.10;7.05;;;;;;;;;;10415121;28;20052;-75
2024/01/10 03:32:41;;;;;;;8.90;5.25;;;;;;;;;;10414388;28;20151;-74
2024/01/10 03:37:42;;;;;;;10.20;6.78;;;;;;;;;;10414151;28;20170;-74
2024/01/10 03:42:42;;;;;;;8.88;5.95;;;;;;;;;;10413160;28;20096;-74
2024/01/10 03:47:42;;;;;;;6.97;5.00;;;;;;;;;;10413562;28;20044;-74
2024/01/10 03:52:43;;;;;;;11.60;6.03;;;;;;;;;;10414047;28;20029;-74
2024/01/10 03:57:43;;;;;;;10.38;5.18;;;;;;;;;;10395356;28;20035;-74
2024/01/10 04:02:43;;;;;;;8.63;5.15;;;;;;;;;;10397691;28;20164;-74
2024/01/10 04:07:44;;;;;;;11.60;5.78;;;;;;;;;;10406530;28;20010;-74
2024/01/10 04:12:44;;;;;;;10.50;5.95;;;;;;;;;;10394940;28;20207;-74
2024/01/10 04:17:44;;;;;;;7.72;5.03;;;;;;;;;;10406230;28;20068;-73
2024/01/10 04:22:44;;;;;;;7.18;4.25;;;;;;;;;;10399713;28;20041;-73
2024/01/10 04:27:45;;;;;;;8.50;4.68;;;;;;;;;;10406288;28;20387;-74
2024/01/10 04:32:45;;;;;;;7.63;4.00;;;;;;;;;;10377124;28;20014;-73
2024/01/10 04:37:45;;;;;;;9.40;5.82;;;;;;;;;;10394207;28;20327;-73
2024/01/10 04:42:46;;;;;;;8.57;5.47;;;;;;;;;;10409016;28;20242;-74
2024/01/10 04:47:46;;;;;;;9.18;5.75;;;;;;;;;;10397555;28;20440;-73
2024/01/10 04:52:46;;;;;;;10.05;6.43;;;;;;;;;;10400170;28;20033;-74
2024/01/10 04:57:46;;;;;;;11.93;6.25;;;;;;;;;;10409349;28;20327;-74
2024/01/10 05:02:47;;;;;;;12.55;6.45;;;;;;;;;;10393562;28;20213;-73
2024/01/10 05:07:47;;;;;;;8.05;5.50;;;;;;;;;;10405451;28;20330;-74
2024/01/10 05:12:48;;;;;;;19.30;7.47;;;;;;;;;;10419689;28;20246;-73
2024/01/10 05:17:48;;;;;;;10.75;6.95;;;;;;;;;;10418257;28;20218;-74
2024/01/10 05:22:48;;;;;;;6.20;4.95;;;;;;;;;;10398961;28;20215;-73
2024/01/10 05:27:49;;;;;;;14.35;7.03;;;;;;;;;;10395535;28;20089;-74
2024/01/10 05:32:51;;;;;;;11.77;7.18;;;;;;;;;;10402872;28;20235;-74
2024/01/10 05:37:52;;;;;;;8.32;4.93;;;;;;;;;;10422588;28;20203;-75
2024/01/10 05:42:52;;;;;;;9.75;6.13;;;;;;;;;;10416440;28;20040;-76
2024/01/10 05:47:52;;;;;;;10.75;6.82;;;;;;;;;;10375469;28;20391;-77
2024/01/10 05:52:53;;;;;;;10.37;6.97;;;;;;;;;;10391818;28;20017;-73
2024/01/10 05:57:53;;;;;;;12.80;7.15;;;;;;;;;;10393492;28;20385;-73
2024/01/10 06:02:53;;;;;;;10.98;6.30;;;;;;;;;;10346378;23;20090;-77
2024/01/10 06:07:53;;;;;;;7.28;5.60;;;;;;;;;;10236829;28;20023;-76
2024/01/10 06:12:53;;;;;;;9.02;5.28;;;;;;;;;;10256299;28;20086;-75
2024/01/10 06:17:54;;;;;;;8.48;5.05;;;;;;;;;;10247737;28;20023;-76
2024/01/10 06:22:54;;;;;;;13.57;7.07;;;;;;;;;;10232799;28;20023;-78
2024/01/10 06:27:54;;;;;;;9.75;6.15;;;;;;;;;;10241082;28;20075;-78
2024/01/10 06:32:55;;;;;;;8.57;5.00;;;;;;;;;;10237498;28;20506;-76
2024/01/10 06:37:55;;;;;;;13.27;7.53;;;;;;;;;;10230317;28;20033;-76
2024/01/10 06:42:55;;;;;;;10.18;5.30;;;;;;;;;;10237753;28;20027;-76
2024/01/10 06:47:55;;;;;;;15.98;9.90;;;;;;;;;;10239333;28;20016;-76
2024/01/10 06:52:56;;;;;;;10.27;8.32;;;;;;;;;;10231366;28;20023;-77
2024/01/10 06:57:56;;;;;;;7.15;5.50;;;;;;;;;;10242607;28;20023;-75
2024/01/10 07:02:56;;;;;;;12.57;7.82;;;;;;;;;;10258470;28;20410;-77
2024/01/10 07:07:57;;;;;;;12.43;7.70;;;;;;;;;;10299367;28;20016;-76
2024/01/10 07:12:58;;;;;;;10.90;8.63;;;;;;;;;;10274188;28;20027;-75
2024/01/10 07:17:58;;;;;;;11.95;8.07;;;;;;;;;;10321036;23;22007;-74
2024/01/10 07:22:59;;;;;;;14.20;8.75;;;;;;;;;;10384652;28;20034;-75
2024/01/10 07:27:59;;;;;;;18.40;10.38;;;;;;;;;;10386920;28;20346;-75
2024/01/10 07:32:59;;;;;;;16.10;9.17;;;;;;;;;;10386187;28;20029;-74
2024/01/10 07:37:59;;;;;;;15.70;8.82;;;;;;;;;;10381981;28;20553;-73
2024/01/10 07:43:00;;;;;;;14.13;6.72;;;;;;;;;;10385640;28;20024;-75
2024/01/10 07:48:00;;;;;;;13.53;8.20;;;;;;;;;;10374051;28;20063;-74
2024/01/10 07:53:01;;;;;;;9.50;7.18;;;;;;;;;;10368851;28;20347;-74
2024/01/10 07:58:01;;;;;;;19.52;9.50;;;;;;;;;;10386655;28;20315;-75
2024/01/10 08:03:01;;;;;;;15.13;7.72;;;;;;;;;;10366688;28;20100;-74
2024/01/10 08:08:03;;;;;;;15.57;7.45;;;;;;;;;;10383471;28;20018;-73
2024/01/10 08:13:03;;;;;;;25.80;6.50;;;;;;;;;;10382295;28;20097;-74
2024/01/10 08:18:04;;;;;;;19.67;7.03;;;;;;;;;;10394893;28;20212;-74
2024/01/10 08:23:04;;;;;;;15.80;6.70;;;;;;;;;;10385692;28;20318;-74
2024/01/10 08:28:04;;;;;;;14.13;7.28;;;;;;;;;;10395024;28;20036;-73
2024/01/10 08:33:04;;;;;;;15.40;8.63;;;;;;;;;;10385398;28;20034;-74
2024/01/10 08:38:07;;;;;;;14.70;6.13;;;;;;;;;;10394719;28;20048;-73
2024/01/10 08:43:07;;;;;;;12.27;6.35;;;;;;;;;;10391665;28;20045;-73
2024/01/10 08:48:08;;;;;;;14.65;6.57;;;;;;;;;;10397684;28;20310;-73
2024/01/10 08:53:08;;;;;;;12.05;5.63;;;;;;;;;;10391185;28;20227;-74
2024/01/10 08:58:08;;;;;;;11.85;5.85;;;;;;;;;;10392853;28;20295;-74
2024/01/10 09:03:08;;;;;;;13.20;6.07;;;;;;;;;;10389597;28;20294;-74
2024/01/10 09:08:09;;;;;;;9.93;4.43;;;;;;;;;;10394507;28;20231;-74
2024/01/10 09:13:09;;;;;;;11.25;4.13;;;;;;;;;;10388629;28;20052;-74
2024/01/10 09:18:09;;;;;;;11.68;5.47;;;;;;;;;;10384445;28;20045;-73
2024/01/10 09:23:10;;;;;;;11.50;5.43;;;;;;;;;;10398743;28;20075;-74
2024/01/10 09:28:11;;;;;;;14.45;5.78;;;;;;;;;;10384123;28;20334;-74
2024/01/10 09:33:12;;;;;;;14.15;6.68;;;;;;;;;;10379830;28;20217;-75
2024/01/10 09:38:12;;;;;;;12.15;4.50;;;;;;;;;;10395008;28;20040;-74
2024/01/10 09:43:12;;;;;;;6.30;4.63;;;;;;;;;;10390880;28;20017;-74
2024/01/10 09:48:13;;;;;;;9.35;5.53;;;;;;;;;;10394811;28;20269;-74
2024/01/10 09:53:21;;;;;;;9.48;5.72;;;;;;;;;;10395034;28;20025;-74
2024/01/10 09:58:22;;;;;;;9.13;6.00;;;;;;;;;;10392966;28;20321;-73
2024/01/10 10:03:23;;;;;;;15.32;6.88;;;;;;;;;;10397162;28;20030;-75
2024/01/10 10:08:24;;;;;;;;;;;;;;;;;;10395270;28;20009;-74
2024/01/10 10:13:25;;;;;;;;;;;;;;;;;;10392636;28;19905;-75
2024/01/10 10:18:25;;;;;;;15.95;7.97;;;;;;;;;;10387914;28;20555;-75
2024/01/10 10:23:26;;;;;;;17.02;7.35;;;;;;;;;;10394270;28;20021;-73
2024/01/10 10:28:31;;;;;;;23.88;7.85;;;;;;;;;;10381050;28;20017;-75
2024/01/10 10:33:32;;;;;;;17.50;7.57;;;;;;;;;;10386884;28;20006;-74
2024/01/10 10:38:33;;;;;;;14.93;7.03;;;;;;;;;;10386703;28;20337;-73
2024/01/10 10:43:35;;;;;;;17.10;7.75;;;;;;;;;;10376468;28;20031;-73
2024/01/10 10:48:36;;;;;;;21.42;7.43;;;;;;;;;;10394545;28;20022;-74
2024/01/10 10:53:37;;;;;;;16.15;7.22;;;;;;;;;;10376531;28;20021;-73
2024/01/10 10:58:44;;;;;;;16.13;6.97;;;;;;;;;;10390271;28;20018;-74
2024/01/10 11:03:47;;;;;;;17.63;7.65;;;;;;;;;;10396468;28;20322;-73
2024/01/10 11:09:01;;;;;;;19.63;9.05;;;;;;;;;;10391241;28;20014;-74
2024/01/10 11:14:01;;;;;;;16.15;7.43;;;;;;;;;;10387859;28;20009;-73
2024/01/10 11:19:21;;;;;;;18.42;8.88;;;;;;;;;;10381588;28;20240;-73
2024/01/10 11:24:23;;;;;;;23.13;10.17;;;;;;;;;;10372256;28;20400;-73
2024/01/10 11:29:23;;;;;;;28.48;10.57;;;;;;;;;;10369867;28;20044;-74
2024/01/10 11:34:25;;;;;;;21.58;10.27;;;;;;;;;;10390119;28;20033;-74
2024/01/10 11:39:26;;;;;;;22.00;9.05;;;;;;;;;;10384635;28;20330;-74
2024/01/10 11:44:27;;;;;;;24.23;9.95;;;;;;;;;;10364050;28;20065;-73
2024/01/10 11:49:27;;;;;;;19.02;8.60;;;;;;;;;;10390919;28;20017;-74
2024/01/10 11:54:38;;;;;;;23.33;10.00;;;;;;;;;;10394364;28;20028;-74
2024/01/10 11:59:43;;;;;;;15.82;7.57;;;;;;;;;;10390099;28;20029;-74
2024/01/10 12:04:43;;;;;;;20.98;9.27;;;;;;;;;;10382699;28;20215;-75
2024/01/10 12:09:44;;;;;;;25.58;11.52;;;;;;;;;;10379450;28;20052;-74
2024/01/10 12:14:45;;;;;;;28.23;13.45;;;;;;;;;;10386024;28;20319;-75
2024/01/10 12:19:47;;;;;;;34.25;12.85;;;;;;;;;;10388232;28;20113;-74
2024/01/10 12:24:48;;;;;;;21.20;12.43;;;;;;;;;;10374851;28;20025;-73
2024/01/10 12:29:50;;;;;;;24.08;11.85;;;;;;;;;;10388552;28;20030;-74
2024/01/10 12:34:54;;;;;;;27.67;13.57;;;;;;;;;;10390124;28;20120;-73
2024/01/10 12:39:55;;;;;;;36.10;15.88;;;;;;;;;;10395021;28;20040;-75
2024/01/10 12:44:56;;;;;;;31.42;15.75;;;;;;;;;;10381049;28;20010;-73
2024/01/10 12:49:56;;;;;;;30.27;17.08;;;;;;;;;;10392252;28;20025;-75
2024/01/10 12:54:57;;;;;;;27.20;14.27;;;;;;;;;;10389184;28;21779;-74
2024/01/10 12:59:58;;;;;;;40.47;16.52;;;;;;;;;;10375515;28;20044;-74
2024/01/10 13:04:58;;;;;;;31.00;17.77;;;;;;;;;;10386518;28;20013;-73
2024/01/10 13:09:59;;;;;;;35.17;18.38;;;;;;;;;;10389817;28;20433;-74
2024/01/10 13:14:59;;;;;;;33.30;16.70;;;;;;;;;;10389532;28;20180;-73
2024/01/10 13:19:59;;;;;;;31.98;14.77;;;;;;;;;;10389720;28;20419;-74
2024/01/10 13:24:59;;;;;;;29.57;16.50;;;;;;;;;;10388088;28;20018;-74
2024/01/10 13:30:00;;;;;;;32.20;17.35;;;;;;;;;;10400011;28;20361;-74
2024/01/10 13:35:03;;;;;;;31.42;16.70;;;;;;;;;;10394366;28;20226;-74
2024/01/10 13:40:06;;;;;;;30.08;17.20;;;;;;;;;;10377833;28;20052;-76
2024/01/10 13:45:08;;;;;;;32.90;15.75;;;;;;;;;;10387072;28;20014;-74
2024/01/10 13:50:08;;;;;;;33.15;14.07;;;;;;;;;;10399290;28;20025;-73
2024/01/10 13:55:09;;;;;;;25.58;14.88;;;;;;;;;;10374113;28;20026;-73
2024/01/10 14:00:14;;;;;;;31.08;16.33;;;;;;;;;;10400966;28;20017;-73
2024/01/10 14:05:15;;;;;;;31.63;16.65;;;;;;;;;;10372953;28;20210;-74
2024/01/10 14:10:15;;;;;;;32.10;17.02;;;;;;;;;;10391932;28;20088;-74
2024/01/10 14:15:15;;;;;;;29.92;15.45;;;;;;;;;;10398435;28;20409;-73
2024/01/10 14:20:15;;;;;;;29.73;16.83;;;;;;;;;;10377726;28;20083;-74
2024/01/10 14:25:16;;;;;;;30.88;16.70;;;;;;;;;;10392877;28;20040;-74
2024/01/10 14:30:16;;;;;;;33.83;17.42;;;;;;;;;;10399601;28;20339;-74
2024/01/10 14:35:16;;;;;;;42.88;19.13;;;;;;;;;;10389103;28;20341;-74
2024/01/10 14:40:17;;;;;;;39.53;19.03;;;;;;;;;;10394733;28;20083;-74
2024/01/10 14:45:17;;;;;;;42.38;18.85;;;;;;;;;;10384350;28;20617;-74
2024/01/10 14:50:18;;;;;;;44.90;19.63;;;;;;;;;;10399863;28;20029;-74
2024/01/10 14:55:24;;;;;;;50.70;21.80;;;;;;;;;;10387582;28;20021;-75
2024/01/10 15:00:25;;;;;;;43.53;19.38;;;;;;;;;;10374412;28;20291;-74
2024/01/10 15:05:26;;;;;;;42.53;19.03;;;;;;;;;;10393691;28;20187;-74
2024/01/10 15:10:27;;;;;;;40.33;20.55;;;;;;;;;;10393516;28;20049;-75
2024/01/10 15:15:27;;;;;;;39.40;22.08;;;;;;;;;;10370134;28;20025;-74
2024/01/10 15:20:27;;;;;;;47.00;23.37;;;;;;;;;;10370251;28;20053;-75
2024/01/10 15:25:28;;;;;;;39.38;21.10;;;;;;;;;;10394443;28;20276;-74
2024/01/10 15:30:28;;;;;;;37.22;21.55;;;;;;;;;;10385229;28;20187;-74
2024/01/10 15:35:28;;;;;;;44.35;22.52;;;;;;;;;;10378073;28;20229;-74
2024/01/10 15:40:29;;;;;;;57.95;24.27;;;;;;;;;;10372943;28;20052;-74
2024/01/10 15:45:31;;;;;;;44.40;23.33;;;;;;;;;;10385771;28;20326;-75
2024/01/10 15:50:31;;;;;;;37.40;20.92;;;;;;;;;;10375669;28;20025;-74
2024/01/10 15:55:33;;;;;;;41.67;23.20;;;;;;;;;;10387422;28;20021;-72
2024/01/10 16:00:33;;;;;;;39.45;23.25;;;;;;;;;;10388909;28;21438;-73
2024/01/10 16:05:34;;;;;;;45.50;24.27;;;;;;;;;;10392004;28;20052;-73
2024/01/10 16:10:34;;;;;;;39.90;20.15;;;;;;;;;;10381648;28;20022;-73
2024/01/10 16:15:34;;;;;;;59.88;25.30;;;;;;;;;;10366497;28;20100;-73
2024/01/10 16:20:34;;;;;;;42.42;23.83;;;;;;;;;;10393990;28;20057;-73
2024/01/10 16:25:35;;;;;;;54.22;24.83;;;;;;;;;;10387494;28;20107;-74
2024/01/10 16:30:35;;;;;;;56.17;29.92;;;;;;;;;;10387559;28;20373;-73
2024/01/10 16:35:35;;;;;;;67.90;32.93;;;;;;;;;;10385809;28;20030;-73
2024/01/10 16:40:36;;;;;;;59.17;33.58;;;;;;;;;;10389376;28;20064;-72
2024/01/10 16:45:36;;;;;;;50.67;29.35;;;;;;;;;;10371415;28;20021;-73
2024/01/10 16:50:36;;;;;;;69.43;27.67;;;;;;;;;;10384923;28;20083;-73
2024/01/10 16:55:36;;;;;;;51.53;28.73;;;;;;;;;;10396405;28;20430;-75
2024/01/10 17:00:37;;;;;;;55.03;29.88;;;;;;;;;;10374441;28;20047;-73
2024/01/10 17:05:39;;;;;;;54.30;28.38;;;;;;;;;;10395764;28;20022;-74
2024/01/10 17:10:39;;;;;;;61.22;32.80;;;;;;;;;;10377089;28;20026;-72
2024/01/10 17:15:39;;;;;;;52.83;30.57;;;;;;;;;;10388449;28;20295;-71
2024/01/10 17:20:40;;;;;;;58.00;30.65;;;;;;;;;;10394750;28;20316;-77
2024/01/10 17:25:40;;;;;;;69.32;30.25;;;;;;;;;;10403412;28;20017;-75
2024/01/10 17:30:40;;;;;;;83.32;32.47;;;;;;;;;;10393265;28;20044;-75
2024/01/10 17:35:41;;;;;;;81.70;34.80;;;;;;;;;;10395407;28;20013;-75
2024/01/10 17:40:41;;;;;;;77.78;34.88;;;;;;;;;;10385511;28;20043;-73
2024/01/10 17:45:41;;;;;;;69.20;32.17;;;;;;;;;;10389835;28;20296;-72
2024/01/10 17:50:41;;;;;;;64.18;30.30;;;;;;;;;;10394831;28;20029;-75
2024/01/10 17:55:42;;;;;;;71.20;31.30;;;;;;;;;;10400376;28;20024;-73
2024/01/10 18:00:42;;;;;;;63.00;32.05;;;;;;;;;;10373240;28;20049;-73
2024/01/10 18:05:43;;;;;;;59.63;27.55;;;;;;;;;;10388596;28;20032;-74
2024/01/10 18:10:45;;;;;;;48.37;27.30;;;;;;;;;;10372737;28;20026;-72
2024/01/10 18:15:45;;;;;;;47.10;26.75;;;;;;;;;;10391710;28;20704;-71
2024/01/10 18:20:45;;;;;;;47.65;24.63;;;;;;;;;;10396265;28;20060;-74
2024/01/10 18:25:48;;;;;;;50.65;25.08;;;;;;;;;;10398696;28;20056;-74
2024/01/10 18:30:48;;;;;;;54.53;25.20;;;;;;;;;;10370863;28;20493;-73
2024/01/10 18:35:50;;;;;;;50.27;26.10;;;;;;;;;;10379218;28;20025;-73
2024/01/10 18:40:52;;;;;;;52.58;25.90;;;;;;;;;;10369768;28;20283;-73
2024/01/10 18:45:52;;;;;;;49.00;28.20;;;;;;;;;;10386020;28;20197;-73
2024/01/10 18:50:52;;;;;;;62.10;32.88;;;;;;;;;;10388063;28;20013;-73
2024/01/10 18:55:54;;;;;;;64.82;32.60;;;;;;;;;;10370940;28;20301;-73
2024/01/10 19:00:54;;;;;;;66.32;32.60;;;;;;;;;;10389464;28;20227;-81
2024/01/10 19:05:54;;;;;;;62.50;33.17;;;;;;;;;;10380762;28;20016;-75
2024/01/10 19:10:55;;;;;;;57.40;30.85;;;;;;;;;;10388573;28;20026;-73
2024/01/10 19:15:55;;;;;;;68.25;31.95;;;;;;;;;;10394074;28;20201;-74
2024/01/10 19:20:55;;;;;;;59.88;28.73;;;;;;;;;;10392535;28;20120;-73
2024/01/10 19:25:58;;;;;;;53.53;26.88;;;;;;;;;;10395401;28;20026;-73
2024/01/10 19:30:59;;;;;;;44.90;22.20;;;;;;;;;;10389672;28;20061;-73
2024/01/10 19:35:59;;;;;;;48.33;21.33;;;;;;;;;;10392478;28;20018;-73
2024/01/10 19:40:59;;;;;;;54.63;24.58;;;;;;;;;;10390794;28;20598;-72
2024/01/10 19:45:59;;;;;;;48.13;23.75;;;;;;;;;;10384098;28;20203;-73
2024/01/10 19:51:00;;;;;;;54.35;26.10;;;;;;;;;;10385132;28;20219;-71
2024/01/10 19:56:00;;;;;;;58.50;29.38;;;;;;;;;;10394138;28;20060;-72
2024/01/10 20:01:00;;;;;;;53.95;27.25;;;;;;;;;;10386692;28;20017;-72
2024/01/10 20:06:01;;;;;;;51.80;21.77;;;;;;;;;;10381455;28;20307;-72
2024/01/10 20:11:01;;;;;;;44.63;24.13;;;;;;;;;;10394123;28;20037;-72
2024/01/10 20:16:03;;;;;;;50.13;22.88;;;;;;;;;;10395987;28;20092;-75
2024/01/10 20:21:05;;;;;;;43.75;20.60;;;;;;;;;;10391017;28;20037;-84
2024/01/10 20:26:05;;;;;;;40.13;19.40;;;;;;;;;;10367550;28;20029;-77
2024/01/10 20:31:06;;;;;;;34.10;15.65;;;;;;;;;;10388359;28;20017;-77
2024/01/10 20:36:06;;;;;;;26.23;16.60;;;;;;;;;;10394050;28;20033;-76
2024/01/10 20:41:06;;;;;;;30.83;14.52;;;;;;;;;;10395058;28;20024;-76
2024/01/10 20:46:07;;;;;;;26.63;14.48;;;;;;;;;;10399577;28;20342;-80
2024/01/10 20:51:07;;;;;;;23.67;14.18;;;;;;;;;;10400873;28;20087;-86
2024/01/10 20:56:07;;;;;;;26.38;14.48;;;;;;;;;;10402460;28;20017;-78
2024/01/10 21:01:09;;;;;;;26.52;15.68;;;;;;;;;;10400775;28;20310;-73
2024/01/10 21:06:09;;;;;;;36.75;18.02;;;;;;;;;;10398262;28;20018;-75
2024/01/10 21:11:10;;;;;;;42.80;21.33;;;;;;;;;;10411857;28;20026;-72
2024/01/10 21:16:10;;;;;;;59.38;28.80;;;;;;;;;;10422748;28;20299;-73
2024/01/10 21:21:10;;;;;;;49.00;26.75;;;;;;;;;;10419604;28;20114;-72
2024/01/10 21:26:11;;;;;;;66.95;33.97;;;;;;;;;;10419089;28;20033;-73
2024/01/10 21:31:12;;;;;;;73.25;40.58;;;;;;;;;;10419829;28;20324;-73
2024/01/10 21:36:12;;;;;;;87.55;46.05;;;;;;;;;;10413090;28;20089;-72
2024/01/10 21:41:12;;;;;;;91.40;44.95;;;;;;;;;;10420356;28;20278;-73
2024/01/10 21:46:12;;;;;;;93.03;50.08;;;;;;;;;;10419617;28;20017;-73
2024/01/10 21:51:13;;;;;;;99.82;51.75;;;;;;;;;;10419470;28;20032;-73
2024/01/10 21:56:13;;;;;;;93.32;51.05;;;;;;;;;;10402473;28;20126;-73
2024/01/10 22:01:13;;;;;;;109.20;52.00;;;;;;;;;;10420813;28;20070;-73
2024/01/10 22:06:14;;;;;;;120.03;58.33;;;;;;;;;;10419108;28;20059;-74
2024/01/10 22:11:14;;;;;;;111.30;60.65;;;;;;;;;;10419392;28;20238;-73
2024/01/10 22:16:14;;;;;;;112.50;52.05;;;;;;;;;;10420361;28;20295;-72
2024/01/10 22:21:15;;;;;;;104.40;52.83;;;;;;;;;;10418376;28;20388;-72
2024/01/10 22:26:15;;;;;;;116.55;55.72;;;;;;;;;;10408529;28;20030;-73
2024/01/10 22:31:15;;;;;;;104.32;53.13;;;;;;;;;;10414822;28;20029;-72
2024/01/10 22:36:15;;;;;;;94.43;49.97;;;;;;;;;;10407581;28;20033;-72
2024/01/10 22:41:15;;;;;;;106.82;52.75;;;;;;;;;;10406879;28;20222;-72
2024/01/10 22:46:16;;;;;;;116.55;55.63;;;;;;;;;;10419905;28;20226;-72
2024/01/10 22:51:17;;;;;;;104.32;47.42;;;;;;;;;;10417555;28;20040;-73
2024/01/10 22:56:17;;;;;;;119.32;54.58;;;;;;;;;;10411054;28;20041;-72
2024/01/10 23:01:18;;;;;;;101.63;52.28;;;;;;;;;;10418270;28;20025;-74
2024/01/10 23:06:19;;;;;;;116.90;54.83;;;;;;;;;;10418023;28;20284;-72
2024/01/10 23:11:19;;;;;;;110.37;48.87;;;;;;;;;;10400301;28;20344;-73
2024/01/10 23:16:19;;;;;;;107.72;52.53;;;;;;;;;;10417970;28;20021;-72
2024/01/10 23:21:19;;;;;;;103.07;54.22;;;;;;;;;;10417855;28;20140;-73
2024/01/10 23:26:19;;;;;;;105.20;51.97;;;;;;;;;;10417426;28;20040;-73
2024/01/10 23:31:20;;;;;;;110.32;52.47;;;;;;;;;;10417059;28;20264;-73
2024/01/10 23:36:20;;;;;;;107.88;54.10;;;;;;;;;;10417192;28;20075;-72
2024/01/10 23:41:20;;;;;;;126.45;60.58;;;;;;;;;;10416903;28;20021;-72
2024/01/10 23:46:21;;;;;;;142.32;70.63;;;;;;;;;;10416681;28;20184;-72
2024/01/10 23:51:21;;;;;;;117.00;58.83;;;;;;;;;;10390321;28;20025;-72
2024/01/10 23:56:21;;;;;;;123.73;55.23;;;;;;;;;;10381463;28;20311;-73
